Time;durP1;ratioP1;P1;durP2;ratioP2;P2;SDS_P1;SDS_P2;PMS_P1;PMS_P2;Temp;Humidity;BMP_temperature;BMP_pressure;BME280_temperature;BME280_humidity;BME280_pressure;Samples;Min_cycle;Max_cycle;Signal;HPM_P1;HPM_P2
2022/05/12 00:00:28;;;;;;;5.07;1.45;;;11.70;99.90;;;;;;5015960;28;20033;-64
2022/05/12 00:02:54;;;;;;;3.55;1.60;;;11.80;99.90;;;;;;4998997;28;20042;-64
2022/05/12 00:05:21;;;;;;;8.50;1.50;;;11.70;99.90;;;;;;4998512;28;20046;-64
2022/05/12 00:07:47;;;;;;;2.80;1.40;;;11.70;99.90;;;;;;5015128;28;20522;-64
2022/05/12 00:10:18;;;;;;;3.72;1.65;;;11.50;99.90;;;;;;5016389;28;20042;-64
2022/05/12 00:12:44;;;;;;;4.40;1.63;;;11.50;99.90;;;;;;5016517;28;20045;-63
2022/05/12 00:15:14;;;;;;;5.70;1.13;;;11.60;99.90;;;;;;5015580;28;20058;-64
2022/05/12 00:17:41;;;;;;;8.23;1.58;;;11.60;99.90;;;;;;5016322;28;20045;-63
2022/05/12 00:20:09;;;;;;;3.08;1.10;;;11.50;99.90;;;;;;5015859;28;20048;-64
2022/05/12 00:22:34;;;;;;;2.95;1.20;;;11.50;99.90;;;;;;5015680;28;20056;-63
2022/05/12 00:25:00;;;;;;;3.83;1.20;;;11.40;99.90;;;;;;5015320;28;20129;-63
2022/05/12 00:27:26;;;;;;;2.03;1.10;;;11.20;99.90;;;;;;5015244;28;20045;-63
2022/05/12 00:29:51;;;;;;;2.97;1.45;;;11.30;99.90;;;;;;4998408;28;20479;-63
2022/05/12 00:32:17;;;;;;;2.50;0.90;;;11.20;99.90;;;;;;5016073;28;20168;-63
2022/05/12 00:34:43;;;;;;;4.00;1.17;;;;;;;;;;5014246;28;20045;-63
2022/05/12 00:37:08;;;;;;;2.58;0.93;;;11.20;99.90;;;;;;4999071;28;20046;-63
2022/05/12 00:39:34;;;;;;;2.85;0.88;;;11.00;99.90;;;;;;5016167;28;20040;-63
2022/05/12 00:42:00;;;;;;;3.33;1.02;;;11.00;99.90;;;;;;5015780;28;20121;-63
2022/05/12 00:44:26;;;;;;;4.13;1.40;;;11.00;99.90;;;;;;4998751;28;20115;-63
2022/05/12 00:46:53;;;;;;;3.45;1.45;;;;;;;;;;4997860;28;20045;-63
2022/05/12 00:49:23;;;;;;;2.20;1.10;;;10.80;99.90;;;;;;5013827;28;20049;-63
2022/05/12 00:52:00;;;;;;;3.88;1.08;;;10.80;99.90;;;;;;4997737;28;20126;-63
2022/05/12 00:54:31;;;;;;;2.67;0.85;;;10.80;99.90;;;;;;5016229;28;20451;-63
2022/05/12 00:56:58;;;;;;;7.30;1.55;;;10.70;99.90;;;;;;5014255;28;20387;-63
2022/05/12 00:59:29;;;;;;;2.88;1.15;;;10.80;99.90;;;;;;5015313;28;20484;-65
2022/05/12 01:01:56;;;;;;;3.88;1.13;;;10.80;99.90;;;;;;5015122;28;20029;-63
2022/05/12 01:04:22;;;;;;;6.00;1.63;;;10.60;99.90;;;;;;5014878;28;20030;-63
2022/05/12 01:06:49;;;;;;;3.72;1.02;;;10.60;99.90;;;;;;5016461;28;20558;-63
2022/05/12 01:09:15;;;;;;;5.45;1.40;;;;;;;;;;4980977;28;20069;-63
2022/05/12 01:11:41;;;;;;;4.13;1.10;;;;;;;;;;4997587;28;20042;-64
2022/05/12 01:14:08;;;;;;;1.58;1.23;;;10.60;99.90;;;;;;4997160;28;20054;-64
2022/05/12 01:16:34;;;;;;;3.58;1.42;;;10.40;99.90;;;;;;4977988;28;20057;-63
2022/05/12 01:18:59;;;;;;;3.60;1.20;;;10.50;99.90;;;;;;4984604;28;20037;-63
2022/05/12 01:21:25;;;;;;;2.22;1.42;;;10.40;99.90;;;;;;4984651;28;20030;-63
2022/05/12 01:23:51;;;;;;;2.65;1.20;;;;;;;;;;5002269;28;20041;-63
2022/05/12 01:26:17;;;;;;;4.97;1.13;;;10.40;99.90;;;;;;5001410;28;20038;-63
2022/05/12 01:28:43;;;;;;;4.25;1.23;;;10.20;99.90;;;;;;4984969;28;20034;-64
2022/05/12 01:31:15;;;;;;;3.40;1.30;;;10.30;99.90;;;;;;4984583;28;20042;-63
2022/05/12 01:33:41;;;;;;;3.45;1.25;;;;;;;;;;5001315;28;20158;-63
2022/05/12 01:36:07;;;;;;;4.30;1.10;;;10.20;99.90;;;;;;5002255;28;20042;-63
2022/05/12 01:38:33;;;;;;;3.80;1.73;;;;;;;;;;5002082;28;20420;-63
2022/05/12 01:40:59;;;;;;;3.40;2.53;;;;;;;;;;5001523;28;20035;-63
2022/05/12 01:43:25;;;;;;;2.17;1.25;;;10.20;99.90;;;;;;5001575;28;20043;-63
2022/05/12 01:45:50;;;;;;;3.60;1.38;;;;;;;;;;5010290;28;20037;-63
2022/05/12 01:48:17;;;;;;;7.78;1.75;;;10.10;99.90;;;;;;5003147;28;20112;-64
2022/05/12 01:50:45;;;;;;;5.43;1.45;;;10.10;99.90;;;;;;5019840;28;20207;-63
2022/05/12 01:53:11;;;;;;;2.88;1.40;;;;;;;;;;5020063;28;20041;-63
2022/05/12 01:55:38;;;;;;;4.57;1.80;;;10.20;99.90;;;;;;5002785;28;20041;-63
2022/05/12 01:58:05;;;;;;;3.28;1.67;;;10.20;99.90;;;;;;5003404;28;20038;-62
2022/05/12 02:00:32;;;;;;;3.67;1.60;;;10.00;99.90;;;;;;5002882;28;20034;-62
2022/05/12 02:03:00;;;;;;;3.65;2.05;;;9.90;99.90;;;;;;5019863;28;20377;-62
2022/05/12 02:05:28;;;;;;;4.50;1.65;;;10.10;99.90;;;;;;5021221;28;20050;-62
2022/05/12 02:07:53;;;;;;;4.43;1.50;;;9.90;99.90;;;;;;5021088;28;20113;-62
2022/05/12 02:10:23;;;;;;;4.82;1.83;;;10.00;99.90;;;;;;5020014;28;20070;-62
2022/05/12 02:12:49;;;;;;;3.53;1.77;;;;;;;;;;5019156;28;20492;-63
2022/05/12 02:15:15;;;;;;;4.28;1.92;;;9.90;99.90;;;;;;5002666;28;20064;-62
2022/05/12 02:17:41;;;;;;;4.78;1.73;;;;;;;;;;5019743;28;20038;-62
2022/05/12 02:20:10;;;;;;;4.55;1.58;;;9.90;99.90;;;;;;5002996;28;20095;-62
2022/05/12 02:22:36;;;;;;;7.28;1.70;;;9.70;99.90;;;;;;5021020;28;20034;-62
2022/05/12 02:25:03;;;;;;;5.22;1.77;;;9.70;99.90;;;;;;5020750;28;20069;-63
2022/05/12 02:27:29;;;;;;;6.50;1.95;;;;;;;;;;5021093;28;20049;-62
2022/05/12 02:29:54;;;;;;;2.63;1.70;;;9.70;99.90;;;;;;5016522;28;20064;-62
2022/05/12 02:32:20;;;;;;;4.25;2.03;;;9.70;99.90;;;;;;5017168;28;20085;-62
2022/05/12 02:34:45;;;;;;;5.80;1.42;;;9.80;99.90;;;;;;5017495;28;20408;-62
2022/05/12 02:37:11;;;;;;;8.20;2.63;;;9.80;99.90;;;;;;5016446;28;20539;-62
2022/05/12 02:39:40;;;;;;;5.07;1.98;;;9.70;99.90;;;;;;5016815;28;20112;-62
2022/05/12 02:42:08;;;;;;;7.60;1.75;;;9.70;99.90;;;;;;5016911;28;20072;-62
2022/05/12 02:44:34;;;;;;;5.13;2.13;;;;;;;;;;5017125;28;20399;-62
2022/05/12 02:47:00;;;;;;;7.20;2.05;;;;;;;;;;4999994;28;20496;-62
2022/05/12 02:49:26;;;;;;;5.95;2.35;;;9.60;99.90;;;;;;5000496;28;20042;-62
2022/05/12 02:51:52;;;;;;;5.03;2.17;;;;;;;;;;4999164;28;20053;-62
2022/05/12 02:54:18;;;;;;;6.55;2.42;;;9.60;99.90;;;;;;5017468;28;20037;-62
2022/05/12 02:56:45;;;;;;;4.70;2.25;;;9.60;99.90;;;;;;5017268;28;20389;-62
2022/05/12 02:59:11;;;;;;;5.20;2.33;;;9.60;99.90;;;;;;5016736;28;20029;-62
2022/05/12 03:01:37;;;;;;;4.68;2.40;;;9.60;99.90;;;;;;5017609;28;20046;-62
2022/05/12 03:04:03;;;;;;;5.20;2.08;;;9.60;99.90;;;;;;5017423;28;20042;-61
2022/05/12 03:06:29;;;;;;;9.98;2.70;;;9.70;99.90;;;;;;5017149;28;20045;-62
2022/05/12 03:08:55;;;;;;;5.32;2.65;;;9.70;99.90;;;;;;5016754;28;20043;-62
2022/05/12 03:11:21;;;;;;;7.25;2.80;;;9.70;99.90;;;;;;5017149;28;20484;-62
2022/05/12 03:13:49;;;;;;;6.25;2.45;;;9.70;99.90;;;;;;5000076;28;20044;-63
2022/05/12 03:16:16;;;;;;;8.35;2.90;;;9.60;99.90;;;;;;4999034;28;20388;-63
2022/05/12 03:18:44;;;;;;;12.52;2.55;;;9.70;99.90;;;;;;5015921;28;20088;-62
2022/05/12 03:21:10;;;;;;;11.35;2.88;;;;;;;;;;5017369;28;20038;-62
2022/05/12 03:23:35;;;;;;;10.88;2.65;;;9.50;99.90;;;;;;5016476;28;20037;-63
2022/05/12 03:26:01;;;;;;;10.05;2.80;;;9.80;99.90;;;;;;5000643;28;20512;-63
2022/05/12 03:28:27;;;;;;;12.45;2.75;;;9.80;99.90;;;;;;5017364;28;20077;-63
2022/05/12 03:30:53;;;;;;;11.75;3.35;;;;;;;;;;5000982;28;20042;-63
2022/05/12 03:33:19;;;;;;;6.95;2.90;;;;;;;;;;5000468;28;20049;-62
2022/05/12 03:35:45;;;;;;;10.98;3.17;;;9.70;99.90;;;;;;4998714;28;20542;-63
2022/05/12 03:38:11;;;;;;;7.68;3.13;;;9.80;99.90;;;;;;5015107;28;20048;-63
2022/05/12 03:40:37;;;;;;;8.75;2.80;;;9.80;99.90;;;;;;4999068;28;20042;-63
2022/05/12 03:43:03;;;;;;;7.68;3.08;;;9.80;99.90;;;;;;5016485;28;20077;-62
2022/05/12 03:45:29;;;;;;;9.77;3.20;;;9.90;99.90;;;;;;5015579;28;20046;-62
2022/05/12 03:47:56;;;;;;;9.38;2.92;;;9.90;99.90;;;;;;4983577;28;20048;-62
2022/05/12 03:50:24;;;;;;;7.18;2.95;;;10.00;99.90;;;;;;5016771;28;20492;-63
2022/05/12 03:52:52;;;;;;;8.10;2.28;;;9.90;99.90;;;;;;5016074;28;20052;-63
2022/05/12 03:55:21;;;;;;;8.63;3.15;;;9.90;99.90;;;;;;4983896;28;20164;-63
2022/05/12 03:57:48;;;;;;;7.70;2.58;;;9.90;99.90;;;;;;5017505;28;20093;-63
2022/05/12 04:00:18;;;;;;;6.82;2.85;;;9.90;99.90;;;;;;5016732;28;20052;-63
2022/05/12 04:02:45;;;;;;;9.32;3.45;;;;;;;;;;5016564;28;20081;-63
2022/05/12 04:05:11;;;;;;;9.80;3.00;;;;;;;;;;4998940;28;20042;-63
2022/05/12 04:07:40;;;;;;;9.20;3.25;;;;;;;;;;4995418;28;20512;-63
2022/05/12 04:10:07;;;;;;;9.25;3.40;;;9.80;99.90;;;;;;4995029;28;20048;-63
2022/05/12 04:12:33;;;;;;;6.20;2.83;;;;;;;;;;4996466;28;20057;-63
2022/05/12 04:14:59;;;;;;;11.30;3.63;;;;;;;;;;5009586;28;20453;-62
2022/05/12 04:17:25;;;;;;;8.98;3.25;;;10.10;99.90;;;;;;4991297;28;20041;-63
2022/05/12 04:19:52;;;;;;;9.40;3.50;;;;;;;;;;4991788;28;20077;-62
2022/05/12 04:22:18;;;;;;;8.60;3.08;;;10.20;99.90;;;;;;4975240;28;20524;-63
2022/05/12 04:24:45;;;;;;;10.48;3.17;;;10.20;99.90;;;;;;4990931;28;20518;-63
2022/05/12 04:27:11;;;;;;;5.78;2.85;;;;;;;;;;5009443;28;20073;-63
2022/05/12 04:29:38;;;;;;;8.90;3.33;;;10.20;99.90;;;;;;5008082;28;20045;-63
2022/05/12 04:32:04;;;;;;;5.70;2.92;;;;;;;;;;4999017;28;20057;-63
2022/05/12 04:37:15;;;;;;;15.32;3.55;;;;;;;;;;4972061;28;20058;-63
2022/05/12 04:39:41;;;;;;;10.98;4.15;;;11.10;99.90;;;;;;4989693;28;20511;-63
2022/05/12 04:42:07;;;;;;;7.43;3.25;;;;;;;;;;4989844;28;20087;-63
2022/05/12 04:44:33;;;;;;;10.98;3.75;;;;;;;;;;4989450;28;20038;-63
2022/05/12 04:46:59;;;;;;;7.63;2.83;;;;;;;;;;5007320;28;20046;-63
2022/05/12 04:49:26;;;;;;;7.30;3.20;;;;;;;;;;4990279;28;20535;-63
2022/05/12 04:51:52;;;;;;;7.50;2.80;;;;;;;;;;4989210;28;20126;-63
2022/05/12 04:54:18;;;;;;;9.50;4.20;;;;;;;;;;5008327;28;20036;-63
2022/05/12 04:56:44;;;;;;;8.38;3.35;;;;;;;;;;5007593;28;20108;-63
2022/05/12 04:59:10;;;;;;;15.30;5.00;;;11.00;99.90;;;;;;5006467;28;20488;-63
2022/05/12 05:01:36;;;;;;;9.13;3.38;;;10.90;99.90;;;;;;5008523;28;20033;-63
2022/05/12 05:04:03;;;;;;;8.48;3.92;;;;;;;;;;5007853;28;20663;-62
2022/05/12 05:06:32;;;;;;;6.43;3.53;;;10.90;99.90;;;;;;4999866;28;20378;-65
2022/05/12 05:08:58;;;;;;;7.13;4.07;;;11.10;99.90;;;;;;5000061;28;20138;-65
2022/05/12 05:11:24;;;;;;;8.50;3.90;;;;;;;;;;5006893;28;20041;-65
2022/05/12 05:13:50;;;;;;;11.70;4.47;;;11.40;99.90;;;;;;4997988;28;20058;-65
2022/05/12 05:16:16;;;;;;;7.78;3.70;;;;;;;;;;5003610;28;20548;-63
2022/05/12 05:18:42;;;;;;;10.38;4.68;;;;;;;;;;5007081;28;20123;-63
2022/05/12 05:21:10;;;;;;;9.57;4.25;;;;;;;;;;5005335;28;20050;-63
2022/05/12 05:23:36;;;;;;;9.00;3.88;;;13.10;99.90;;;;;;5009533;28;20049;-63
2022/05/12 05:26:02;;;;;;;10.80;3.40;;;13.20;99.90;;;;;;4991571;28;20060;-64
2022/05/12 05:28:28;;;;;;;8.23;3.55;;;;;;;;;;5008967;28;20411;-64
2022/05/12 05:30:54;;;;;;;7.90;3.80;;;;;;;;;;5002728;28;20448;-64
2022/05/12 05:33:20;;;;;;;11.63;4.30;;;13.50;99.90;;;;;;5002923;28;20064;-63
2022/05/12 05:35:46;;;;;;;7.20;3.65;;;13.40;99.90;;;;;;4997938;28;20488;-64
2022/05/12 05:38:12;;;;;;;8.85;3.95;;;13.50;99.90;;;;;;4990004;28;20062;-64
2022/05/12 05:40:38;;;;;;;12.20;3.97;;;13.70;99.90;;;;;;4976805;28;20102;-63
2022/05/12 05:43:04;;;;;;;8.93;3.88;;;14.00;99.90;;;;;;4994135;28;20044;-64
2022/05/12 05:45:30;;;;;;;8.18;2.88;;;14.50;99.90;;;;;;4999592;28;20129;-65
2022/05/12 05:48:00;;;;;;;9.23;3.20;;;14.30;99.90;;;;;;4992903;28;20673;-64
2022/05/12 05:50:29;;;;;;;10.15;4.47;;;14.40;99.90;;;;;;4993151;28;20034;-64
2022/05/12 05:55:42;;;;;;;10.35;3.65;;;14.50;99.90;;;;;;5003261;28;20042;-64
2022/05/12 05:58:08;;;;;;;9.15;3.50;;;14.70;99.90;;;;;;5007811;28;20140;-64
2022/05/12 06:00:36;;;;;;;8.85;3.28;;;14.40;99.90;;;;;;4987874;28;20061;-64
2022/05/12 06:03:03;;;;;;;8.18;3.78;;;14.60;99.90;;;;;;4992131;28;20037;-64
2022/05/12 06:05:28;;;;;;;11.80;3.30;;;14.80;99.90;;;;;;5011821;28;20127;-64
2022/05/12 06:07:54;;;;;;;9.05;3.15;;;15.00;99.90;;;;;;5008026;28;20070;-64
2022/05/12 06:10:20;;;;;;;7.68;3.50;;;15.20;99.90;;;;;;5014545;28;20034;-64
2022/05/12 06:12:48;;;;;;;10.07;3.58;;;15.60;99.90;;;;;;4991376;28;20049;-64
2022/05/12 06:15:15;;;;;;;8.65;3.35;;;15.60;99.90;;;;;;5011356;28;20068;-64
2022/05/12 06:17:41;;;;;;;8.80;4.40;;;16.00;99.90;;;;;;5013919;28;20038;-63
2022/05/12 06:20:09;;;;;;;11.30;4.00;;;15.80;99.90;;;;;;5014141;28;20110;-64
2022/05/12 06:22:35;;;;;;;9.68;3.88;;;16.00;99.90;;;;;;4996233;28;20045;-64
2022/05/12 06:25:05;;;;;;;11.82;3.67;;;15.70;99.90;;;;;;4987855;28;20044;-65
2022/05/12 06:27:32;;;;;;;9.73;4.18;;;15.90;99.90;;;;;;4963072;28;20442;-65
2022/05/12 06:29:58;;;;;;;10.23;3.88;;;16.10;99.90;;;;;;4996701;28;20527;-65
2022/05/12 06:32:24;;;;;;;11.70;4.00;;;16.20;99.90;;;;;;4996574;28;20050;-65
2022/05/12 06:34:49;;;;;;;9.95;2.70;;;16.30;99.90;;;;;;4996587;28;20031;-65
2022/05/12 06:37:16;;;;;;;9.20;2.88;;;16.20;99.90;;;;;;4996478;28;20404;-64
2022/05/12 06:39:42;;;;;;;12.25;4.28;;;16.40;99.90;;;;;;4996795;28;20049;-65
2022/05/12 06:42:08;;;;;;;8.13;3.22;;;16.20;99.90;;;;;;4996357;28;20050;-65
2022/05/12 06:44:34;;;;;;;10.52;3.17;;;16.50;99.90;;;;;;4994975;28;20053;-67
2022/05/12 06:47:01;;;;;;;8.13;2.92;;;16.70;99.90;;;;;;5014215;28;20041;-65
2022/05/12 06:49:28;;;;;;;9.82;3.22;;;17.00;99.90;;;;;;5014440;28;20567;-66
2022/05/12 06:51:55;;;;;;;7.60;2.97;;;17.00;99.90;;;;;;5015630;28;20171;-65
2022/05/12 06:54:22;;;;;;;8.70;2.42;;;17.10;99.90;;;;;;5015656;28;20046;-64
2022/05/12 06:56:48;;;;;;;10.43;2.55;;;16.70;99.90;;;;;;5014426;28;20095;-66
2022/05/12 06:59:15;;;;;;;8.73;2.53;;;16.40;99.90;;;;;;5014266;28;20038;-66
2022/05/12 07:01:40;;;;;;;10.10;2.65;;;16.40;99.90;;;;;;5015177;28;20077;-66
2022/05/12 07:04:06;;;;;;;8.18;2.60;;;16.20;99.90;;;;;;5010807;28;20076;-65
2022/05/12 07:06:32;;;;;;;9.40;3.13;;;16.30;99.90;;;;;;4994543;28;20069;-65
2022/05/12 07:08:58;;;;;;;9.77;2.78;;;16.00;99.90;;;;;;4976875;28;20053;-65
2022/05/12 07:11:23;;;;;;;8.25;2.50;;;16.00;99.90;;;;;;5006500;28;20088;-66
2022/05/12 07:13:49;;;;;;;7.03;2.58;;;15.90;99.90;;;;;;4988748;28;20046;-67
2022/05/12 07:16:15;;;;;;;9.63;4.00;;;15.80;99.90;;;;;;5014620;28;20536;-66
2022/05/12 07:18:40;;;;;;;10.98;2.97;;;15.80;99.90;;;;;;5015007;28;20050;-66
2022/05/12 07:26:40;;;;;;;9.02;2.13;;;15.60;99.90;;;;;;5014926;28;20046;-66
2022/05/12 07:29:10;;;;;;;8.55;1.92;;;15.60;99.90;;;;;;4997459;28;20100;-66
2022/05/12 07:31:36;;;;;;;10.20;1.77;;;15.60;99.90;;;;;;5015047;28;20046;-66
2022/05/12 07:34:02;;;;;;;5.25;1.65;;;15.50;99.90;;;;;;4997248;28;20068;-66
2022/05/12 07:36:30;;;;;;;9.80;3.83;;;15.60;99.90;;;;;;4981225;28;20096;-66
2022/05/12 07:38:56;;;;;;;8.68;2.28;;;15.60;99.90;;;;;;5014843;28;20484;-66
2022/05/12 07:41:24;;;;;;;4.57;1.85;;;15.70;99.90;;;;;;5014733;28;20046;-66
2022/05/12 07:43:51;;;;;;;6.30;2.90;;;15.70;99.90;;;;;;5014490;28;20566;-66
2022/05/12 07:46:18;;;;;;;9.23;2.90;;;15.40;99.90;;;;;;4997314;28;20049;-66
2022/05/12 07:48:44;;;;;;;7.97;1.88;;;15.70;99.90;;;;;;5013414;28;20045;-66
2022/05/12 07:51:10;;;;;;;8.68;2.42;;;15.70;99.90;;;;;;4997027;28;20417;-66
2022/05/12 07:53:37;;;;;;;9.05;1.90;;;15.70;99.90;;;;;;4996860;28;20408;-65
2022/05/12 07:56:03;;;;;;;9.80;1.70;;;15.70;99.90;;;;;;5014780;28;20052;-66
2022/05/12 07:58:30;;;;;;;8.35;2.10;;;15.80;99.90;;;;;;5014428;28;20042;-66
2022/05/12 08:00:57;;;;;;;9.95;2.45;;;15.80;99.90;;;;;;5013594;28;20052;-66
2022/05/12 08:03:23;;;;;;;10.90;2.70;;;15.80;99.90;;;;;;5013060;28;20388;-66
2022/05/12 08:05:50;;;;;;;6.60;1.98;;;15.90;99.90;;;;;;5013372;28;20477;-66
2022/05/12 08:08:16;;;;;;;8.38;2.38;;;16.00;99.90;;;;;;5014259;28;20038;-65
2022/05/12 08:10:42;;;;;;;10.48;2.17;;;15.90;99.90;;;;;;5013291;28;20546;-66
2022/05/12 08:13:16;;;;;;;8.07;2.17;;;16.00;99.90;;;;;;5014187;28;20046;-66
2022/05/12 08:15:49;;;;;;;9.00;2.37;;;16.00;99.90;;;;;;5013038;28;20515;-66
2022/05/12 08:18:21;;;;;;;7.75;1.80;;;16.20;99.90;;;;;;4980430;28;20041;-66
2022/05/12 08:20:48;;;;;;;8.38;2.28;;;16.30;99.90;;;;;;4996553;28;20037;-65
2022/05/12 08:23:14;;;;;;;12.15;2.65;;;16.40;99.90;;;;;;4980290;28;20050;-66
2022/05/12 08:25:41;;;;;;;10.48;2.08;;;16.20;99.90;;;;;;5013902;28;20042;-66
2022/05/12 08:28:07;;;;;;;8.98;2.58;;;16.40;99.90;;;;;;4995527;28;20553;-66
2022/05/12 08:30:33;;;;;;;8.48;2.78;;;16.40;99.90;;;;;;5013990;28;20041;-66
2022/05/12 08:32:59;;;;;;;8.45;1.83;;;16.30;99.90;;;;;;5013931;28;20530;-66
2022/05/12 08:35:26;;;;;;;7.35;2.72;;;16.20;99.90;;;;;;5013819;28;20069;-66
2022/05/12 08:37:52;;;;;;;5.00;1.63;;;16.30;99.90;;;;;;5013814;28;20527;-65
2022/05/12 08:40:49;;;;;;;6.90;1.75;;;16.50;99.90;;;;;;4996045;28;20056;-66
2022/05/12 08:43:18;;;;;;;7.53;1.90;;;16.50;99.90;;;;;;4996141;28;20079;-66
2022/05/12 08:45:44;;;;;;;6.65;2.10;;;16.50;99.90;;;;;;4996351;28;20044;-66
2022/05/12 08:48:13;;;;;;;7.90;2.10;;;16.70;99.90;;;;;;4980080;28;20571;-66
2022/05/12 08:50:40;;;;;;;8.20;2.05;;;16.80;99.90;;;;;;4995865;28;20046;-66
2022/05/12 08:53:12;;;;;;;7.78;2.45;;;16.70;99.90;;;;;;5013679;28;20046;-66
2022/05/12 08:55:43;;;;;;;9.30;3.25;;;17.10;99.90;;;;;;5013611;28;20065;-66
2022/05/12 08:58:26;;;;;;;5.22;1.80;;;16.80;99.90;;;;;;5019221;28;20087;-66
2022/05/12 09:01:36;;;;;;;4.95;1.70;;;16.90;99.90;;;;;;5014575;28;20048;-66
2022/05/12 09:04:32;;;;;;;7.13;1.58;;;16.90;99.90;;;;;;4968768;28;20612;-66
2022/05/12 09:07:08;;;;;;;6.45;1.70;;;16.90;99.90;;;;;;4990454;28;20093;-66
2022/05/12 09:10:04;;;;;;;9.25;1.98;;;17.20;99.90;;;;;;4993859;28;20034;-66
2022/05/12 09:13:01;;;;;;;6.57;1.50;;;17.10;99.90;;;;;;4993641;28;20046;-66
2022/05/12 09:15:34;;;;;;;7.68;2.17;;;17.30;99.90;;;;;;4964182;28;20088;-65
2022/05/12 09:18:22;;;;;;;6.57;2.25;;;17.30;99.90;;;;;;4988929;28;20050;-66
2022/05/12 09:20:48;;;;;;;10.63;2.00;;;17.30;99.90;;;;;;4995080;28;20050;-66
2022/05/12 09:23:13;;;;;;;6.18;2.25;;;17.30;99.90;;;;;;5013294;28;20049;-66
2022/05/12 09:25:48;;;;;;;5.32;1.50;;;17.40;99.90;;;;;;5013077;28;20046;-66
2022/05/12 09:28:37;;;;;;;7.82;1.40;;;17.70;99.90;;;;;;4995742;28;20045;-66
2022/05/12 09:31:12;;;;;;;8.13;1.73;;;17.30;99.90;;;;;;4979586;28;20045;-66
2022/05/12 09:33:39;;;;;;;9.55;1.63;;;17.60;99.90;;;;;;5011711;28;20193;-66
2022/05/12 09:36:08;;;;;;;6.63;1.60;;;17.50;99.90;;;;;;5007062;28;20033;-65
2022/05/12 09:38:43;;;;;;;4.43;1.20;;;17.60;99.90;;;;;;4980329;28;20038;-64
2022/05/12 09:41:16;;;;;;;8.63;1.15;;;17.30;99.90;;;;;;4977370;28;20428;-65
2022/05/12 09:43:42;;;;;;;5.65;0.93;;;17.40;99.90;;;;;;4998483;28;20101;-65
2022/05/12 09:46:22;;;;;;;4.72;1.10;;;17.30;99.90;;;;;;5010773;28;20096;-66
2022/05/12 09:48:49;;;;;;;5.45;0.90;;;17.20;99.90;;;;;;5016506;28;20443;-66
2022/05/12 09:51:29;;;;;;;3.85;0.85;;;17.30;99.90;;;;;;4983435;28;20459;-66
2022/05/12 09:54:18;;;;;;;4.60;0.82;;;17.20;99.90;;;;;;4999092;28;20127;-66
2022/05/12 09:56:59;;;;;;;4.55;1.10;;;17.60;99.90;;;;;;4997906;28;20065;-66
2022/05/12 09:59:28;;;;;;;4.85;1.20;;;17.70;99.90;;;;;;5016324;28;20128;-66
2022/05/12 10:01:59;;;;;;;9.77;2.13;;;17.80;99.90;;;;;;4999067;28;20069;-66
2022/05/12 10:10:19;;;;;;;7.00;1.60;;;18.20;99.90;;;;;;5016709;28;20132;-66
2022/05/12 10:12:51;;;;;;;5.38;1.77;;;18.10;99.90;;;;;;5015199;28;20484;-65
2022/05/12 10:15:23;;;;;;;4.40;1.10;;;18.00;99.90;;;;;;4998645;28;20103;-66
2022/05/12 10:18:04;;;;;;;4.97;1.10;;;17.80;99.90;;;;;;4998924;28;20077;-66
2022/05/12 10:20:32;;;;;;;4.40;1.20;;;18.10;99.90;;;;;;4998997;28;20053;-66
2022/05/12 10:23:03;;;;;;;2.95;1.15;;;18.30;99.90;;;;;;4981537;28;20045;-66
2022/05/12 10:25:56;;;;;;;6.88;1.83;;;18.20;99.90;;;;;;5014766;28;20075;-66
2022/05/12 10:28:59;;;;;;;3.67;1.40;;;17.80;99.90;;;;;;5016012;28;20377;-65
2022/05/12 10:31:52;;;;;;;6.72;2.25;;;18.00;99.90;;;;;;4977305;28;20057;-66
2022/05/12 10:34:29;;;;;;;3.45;1.05;;;18.10;99.90;;;;;;4998593;28;20049;-66
2022/05/12 10:37:33;;;;;;;6.45;1.42;;;18.20;99.90;;;;;;4962445;28;20073;-65
2022/05/12 10:40:29;;;;;;;4.18;1.48;;;18.10;99.90;;;;;;4996371;28;20512;-66
2022/05/12 10:43:15;;;;;;;;;;;18.20;99.90;;;;;;4979223;28;20045;-66
2022/05/12 10:45:58;;;;;;;2.88;0.90;;;18.30;99.90;;;;;;4985350;28;19917;-66
2022/05/12 10:48:44;;;;;;;4.63;1.00;;;18.40;99.90;;;;;;5016124;28;20041;-66
2022/05/12 10:51:41;;;;;;;3.78;1.27;;;18.60;99.90;;;;;;4994962;28;20129;-66
2022/05/12 10:54:25;;;;;;;2.05;0.73;;;18.60;99.90;;;;;;5011556;28;20137;-66
2022/05/12 10:57:05;;;;;;;6.20;0.98;;;18.80;99.90;;;;;;4998308;28;20041;-66
2022/05/12 10:59:55;;;;;;;4.35;1.15;;;18.70;99.90;;;;;;5007894;28;20062;-65
2022/05/12 11:02:40;;;;;;;6.50;0.95;;;18.90;99.90;;;;;;5012382;28;20049;-65
2022/05/12 11:05:08;;;;;;;;;;;18.50;99.90;;;;;;5012771;28;20042;-66
2022/05/12 11:07:37;;;;;;;3.08;1.10;;;18.50;99.90;;;;;;5014262;28;19924;-66
2022/05/12 11:10:36;;;;;;;5.05;0.80;;;18.40;99.90;;;;;;5011616;28;20355;-66
2022/05/12 11:13:11;;;;;;;4.18;1.45;;;18.20;99.90;;;;;;4987534;28;20042;-66
2022/05/12 11:15:55;;;;;;;2.55;0.93;;;18.10;99.90;;;;;;4981561;28;20061;-66
2022/05/12 11:18:47;;;;;;;5.03;0.80;;;18.00;99.90;;;;;;5011712;28;20088;-66
2022/05/12 11:21:25;;;;;;;1.77;0.70;;;18.30;99.90;;;;;;5014376;28;20053;-66
2022/05/12 11:23:58;;;;;;;4.03;1.00;;;18.10;99.90;;;;;;4997803;28;20081;-66
2022/05/12 11:26:39;;;;;;;6.10;1.73;;;18.00;99.90;;;;;;5014747;28;20049;-64
2022/05/12 11:32:18;;;;;;;4.75;1.50;;;18.10;99.90;;;;;;5015145;28;20085;-64
2022/05/12 11:34:49;;;;;;;5.35;0.82;;;17.80;99.90;;;;;;4997110;28;20092;-64
2022/05/12 11:37:43;;;;;;;5.07;1.67;;;17.70;99.90;;;;;;5011679;28;20073;-66
2022/05/12 11:40:33;;;;;;;5.32;1.42;;;18.20;99.90;;;;;;5010757;28;20108;-64
2022/05/12 11:46:33;;;;;;;3.92;1.00;;;18.20;99.90;;;;;;5010254;28;20084;-64
2022/05/12 11:49:22;;;;;;;3.60;1.00;;;18.10;99.90;;;;;;5011799;28;20081;-63
2022/05/12 11:52:03;;;;;;;6.60;0.88;;;18.40;99.90;;;;;;5010456;28;20390;-64
2022/05/12 11:54:39;;;;;;;3.33;0.90;;;18.30;99.90;;;;;;4993900;28;20121;-64
2022/05/12 11:57:22;;;;;;;3.63;0.98;;;18.10;99.90;;;;;;5010389;28;20049;-64
2022/05/12 11:59:51;;;;;;;2.40;0.77;;;18.20;99.90;;;;;;5011650;28;20526;-64
2022/05/12 12:02:29;;;;;;;2.88;0.80;;;18.00;99.90;;;;;;4993449;28;20046;-64
2022/05/12 12:05:06;;;;;;;2.85;0.90;;;18.00;99.90;;;;;;4993464;28;20045;-64
2022/05/12 12:07:32;;;;;;;3.58;1.00;;;18.20;99.90;;;;;;5011498;28;20069;-64
2022/05/12 12:10:30;;;;;;;3.22;0.90;;;18.00;99.90;;;;;;4994039;28;20159;-64
2022/05/12 12:13:15;;;;;;;5.38;0.80;;;18.00;99.90;;;;;;5012550;28;20034;-64
2022/05/12 12:15:57;;;;;;;3.20;1.33;;;18.40;99.90;;;;;;5013962;28;20456;-64
2022/05/12 12:18:25;;;;;;;5.10;0.90;;;18.40;99.90;;;;;;5014342;28;20041;-64
2022/05/12 12:20:54;;;;;;;5.07;2.33;;;18.30;99.90;;;;;;5012767;28;20080;-64
2022/05/12 12:23:55;;;;;;;4.90;0.95;;;18.40;99.90;;;;;;5014009;28;20042;-64
2022/05/12 12:26:30;;;;;;;4.95;1.25;;;18.70;99.90;;;;;;4995235;28;20129;-64
2022/05/12 12:29:15;;;;;;;3.33;0.60;;;18.70;99.90;;;;;;4995645;28;20388;-64
2022/05/12 12:31:45;;;;;;;3.53;0.70;;;18.50;99.90;;;;;;5013386;28;20053;-64
2022/05/12 12:34:17;;;;;;;4.80;1.13;;;18.50;99.90;;;;;;4996232;28;20523;-64
2022/05/12 12:36:57;;;;;;;5.05;1.20;;;18.60;99.90;;;;;;4996207;28;20073;-64
2022/05/12 12:39:37;;;;;;;4.25;1.00;;;18.30;99.90;;;;;;4996166;28;20042;-65
2022/05/12 12:42:27;;;;;;;8.38;1.35;;;18.50;99.90;;;;;;5012790;28;20144;-64
2022/05/12 12:45:20;;;;;;;5.07;1.10;;;18.50;99.90;;;;;;4996339;28;20392;-64
2022/05/12 12:48:10;;;;;;;4.13;1.20;;;18.60;99.90;;;;;;4992272;28;20093;-64
2022/05/12 12:50:42;;;;;;;3.72;1.00;;;18.60;99.90;;;;;;4995573;28;20053;-64
2022/05/12 12:56:35;;;;;;;6.13;1.23;;;18.50;99.90;;;;;;4973724;28;20133;-67
2022/05/12 12:59:21;;;;;;;10.18;2.38;;;18.30;99.90;;;;;;4989935;28;20038;-66
2022/05/12 13:01:49;;;;;;;4.82;1.35;;;18.60;99.90;;;;;;4990113;28;20135;-66
2022/05/12 13:04:27;;;;;;;4.60;1.25;;;18.50;99.90;;;;;;4974713;28;20035;-67
2022/05/12 13:06:56;;;;;;;5.05;1.00;;;18.70;99.90;;;;;;5010267;28;20423;-65
2022/05/12 13:09:26;;;;;;;9.02;1.35;;;18.80;99.90;;;;;;5006740;28;20121;-67
2022/05/12 13:12:18;;;;;;;5.43;1.42;;;18.80;99.90;;;;;;5010517;28;20037;-65
2022/05/12 13:14:46;;;;;;;5.80;1.00;;;18.80;99.90;;;;;;4992756;28;20049;-66
2022/05/12 13:17:36;;;;;;;5.22;1.20;;;18.80;99.90;;;;;;4993355;28;20041;-66
2022/05/12 13:20:04;;;;;;;4.80;1.33;;;18.60;99.90;;;;;;5010820;28;20038;-66
2022/05/12 13:22:46;;;;;;;5.75;1.00;;;18.60;99.90;;;;;;5002741;28;20041;-66
2022/05/12 13:25:35;;;;;;;3.30;1.27;;;18.50;99.90;;;;;;4973240;28;20085;-66
2022/05/12 13:28:01;;;;;;;4.70;1.17;;;18.40;99.90;;;;;;4989345;28;20523;-66
2022/05/12 13:30:37;;;;;;;3.75;0.88;;;18.40;99.90;;;;;;5005673;28;20556;-66
2022/05/12 13:33:09;;;;;;;5.00;0.93;;;18.20;99.90;;;;;;4998987;28;20074;-66
2022/05/12 13:35:35;;;;;;;6.13;1.00;;;18.40;99.90;;;;;;4985226;28;20041;-64
2022/05/12 13:38:13;;;;;;;2.20;0.75;;;18.70;99.90;;;;;;4983290;28;20042;-65
2022/05/12 13:41:01;;;;;;;4.50;0.80;;;18.90;99.90;;;;;;4967940;28;20116;-64
2022/05/12 13:43:39;;;;;;;5.53;0.93;;;18.80;99.90;;;;;;5003428;28;20462;-65
2022/05/12 13:46:17;;;;;;;3.00;1.02;;;19.20;99.90;;;;;;5000957;28;20128;-65